createdAt,value
2023-05-04T00:00:31.848Z,43.74
2023-05-04T00:01:57.215Z,43.84
2023-05-04T00:03:20.019Z,43.78
2023-05-04T00:04:43.160Z,44.04
2023-05-04T00:06:08.391Z,43.87
2023-05-04T00:07:30.740Z,43.94
2023-05-04T00:08:53.533Z,43.97
2023-05-04T00:10:15.993Z,44.11
2023-05-04T00:11:38.015Z,43.99
2023-05-04T00:13:02.105Z,44.10
2023-05-04T00:14:23.623Z,44.01
2023-05-04T00:15:46.676Z,43.96
2023-05-04T00:17:11.361Z,44.24
2023-05-04T00:18:34.229Z,44.12
2023-05-04T00:19:58.643Z,44.23
2023-05-04T00:21:23.071Z,44.36
2023-05-04T00:22:45.791Z,44.43
2023-05-04T00:24:10.351Z,44.18
2023-05-04T00:25:35.212Z,44.19
2023-05-04T00:27:00.441Z,44.35
2023-05-04T00:28:21.769Z,44.51
2023-05-04T00:29:44.231Z,44.38
2023-05-04T00:31:07.954Z,44.42
2023-05-04T00:32:36.605Z,44.52
2023-05-04T00:33:58.181Z,44.56
2023-05-04T00:35:31.953Z,44.45
2023-05-04T00:36:56.592Z,44.46
2023-05-04T00:38:19.532Z,44.83
2023-05-04T00:39:44.787Z,44.83
2023-05-04T00:41:06.020Z,44.92
2023-05-04T00:42:28.792Z,44.92
2023-05-04T00:43:59.046Z,44.98
2023-05-04T00:45:25.866Z,44.89
2023-05-04T00:46:47.738Z,44.98
2023-05-04T00:48:12.114Z,45.13
2023-05-04T00:49:33.575Z,45.12
2023-05-04T00:50:56.246Z,44.93
2023-05-04T00:52:18.267Z,45.12
2023-05-04T00:53:43.359Z,45.23
2023-05-04T00:55:06.133Z,45.42
2023-05-04T00:56:30.364Z,45.46
2023-05-04T00:57:55.650Z,45.64
2023-05-04T00:59:18.030Z,45.58
2023-05-04T01:00:43.899Z,45.82
2023-05-04T01:02:09.502Z,45.70
2023-05-04T01:03:32.779Z,45.70
2023-05-04T01:04:55.636Z,45.50
2023-05-04T01:06:29.716Z,45.60
2023-05-04T01:08:02.372Z,45.71
2023-05-04T01:09:33.126Z,45.55
2023-05-04T01:11:01.227Z,45.58
2023-05-04T01:12:31.676Z,45.43
2023-05-04T01:13:56.387Z,45.60
2023-05-04T01:15:22.549Z,45.69
2023-05-04T01:16:46.705Z,45.88
2023-05-04T01:18:10.796Z,45.82
2023-05-04T01:19:39.355Z,45.96
2023-05-04T01:21:04.977Z,46.02
2023-05-04T01:22:30.661Z,45.93
2023-05-04T01:23:53.272Z,45.92
2023-05-04T01:25:14.790Z,46.06
2023-05-04T01:26:41.888Z,46.10
2023-05-04T01:28:08.918Z,46.22
2023-05-04T01:29:37.796Z,46.29
2023-05-04T01:31:04.177Z,46.23
2023-05-04T01:32:30.064Z,46.11
2023-05-04T01:33:54.601Z,46.18
2023-05-04T01:35:17.748Z,46.31
2023-05-04T01:47:49.301Z,46.29
2023-05-04T01:55:01.813Z,46.54
2023-05-04T01:59:45.329Z,46.67
2023-05-04T02:01:25.009Z,46.98
2023-05-04T02:06:46.609Z,47.05
2023-05-04T02:09:00.919Z,47.24
2023-05-04T02:14:46.404Z,47.18
2023-05-04T02:16:08.408Z,47.40
2023-05-04T02:17:30.375Z,47.12
2023-05-04T02:18:52.497Z,47.37
2023-05-04T02:20:15.356Z,47.70
2023-05-04T02:21:43.755Z,48.02
2023-05-04T02:23:04.915Z,48.13
2023-05-04T02:24:30.033Z,48.21
2023-05-04T02:25:52.591Z,48.37
2023-05-04T02:27:16.233Z,48.47
2023-05-04T02:28:38.676Z,48.64
2023-05-04T02:30:00.707Z,48.67
2023-05-04T02:31:22.964Z,48.62
2023-05-04T02:32:46.808Z,48.64
2023-05-04T02:34:10.849Z,48.97
2023-05-04T02:35:44.576Z,48.74
2023-05-04T02:37:07.198Z,48.91
2023-05-04T02:38:30.431Z,48.91
2023-05-04T02:40:12.376Z,48.92
2023-05-04T02:42:06.721Z,48.91
2023-05-04T02:43:39.795Z,49.14
2023-05-04T02:45:01.104Z,49.25
2023-05-04T02:46:38.567Z,49.40
2023-05-04T02:49:59.135Z,49.53
2023-05-04T02:51:04.659Z,49.29
2023-05-04T02:52:27.352Z,49.54
2023-05-04T02:54:00.606Z,49.68
2023-05-04T02:55:25.586Z,49.64
2023-05-04T02:56:48.585Z,50.01
2023-05-04T02:58:16.551Z,49.99
2023-05-04T02:59:47.916Z,50.06
2023-05-04T03:01:13.678Z,50.04
2023-05-04T03:02:44.725Z,50.32
2023-05-04T03:04:08.148Z,50.29
2023-05-04T03:05:46.031Z,50.45
2023-05-04T03:07:23.447Z,50.49
2023-05-04T03:10:54.243Z,50.58
2023-05-04T03:12:18.205Z,50.79
2023-05-04T03:13:42.823Z,50.96
2023-05-04T03:15:09.028Z,50.86
2023-05-04T03:16:33.139Z,51.14
2023-05-04T03:18:11.079Z,50.97
2023-05-04T03:19:46.347Z,51.22
2023-05-04T03:21:25.652Z,51.36
2023-05-04T03:22:49.488Z,51.21
2023-05-04T03:24:19.255Z,51.43
2023-05-04T03:25:44.415Z,51.47
2023-05-04T03:27:11.277Z,51.75
2023-05-04T03:28:36.060Z,51.60
2023-05-04T03:30:08.705Z,51.66
2023-05-04T03:31:32.458Z,51.69
2023-05-04T03:33:12.360Z,51.78
2023-05-04T03:34:41.626Z,51.61
2023-05-04T03:36:15.306Z,51.77
2023-05-04T03:37:40.921Z,51.71
2023-05-04T03:39:08.777Z,51.84
2023-05-04T03:40:32.094Z,51.82
2023-05-04T03:44:59.054Z,51.58
2023-05-04T03:46:24.114Z,51.77
2023-05-04T03:47:47.672Z,51.83
2023-05-04T03:49:28.967Z,52.05
2023-05-04T03:50:55.062Z,52.00
2023-05-04T03:52:27.507Z,51.89
2023-05-04T03:53:53.173Z,52.16
2023-05-04T03:55:15.903Z,52.23
2023-05-04T03:56:50.159Z,52.15
2023-05-04T03:58:16.277Z,52.25
2023-05-04T03:59:39.280Z,52.22
2023-05-04T04:01:04.009Z,52.02
2023-05-04T04:02:37.867Z,52.22
2023-05-04T04:05:51.064Z,52.26
2023-05-04T04:07:18.639Z,52.27
2023-05-04T04:08:41.381Z,52.36
2023-05-04T04:10:06.183Z,52.46
2023-05-04T04:12:20.562Z,52.52
2023-05-04T04:14:04.653Z,52.22
2023-05-04T04:15:26.104Z,52.43
2023-05-04T04:16:49.677Z,52.36
2023-05-04T04:18:14.690Z,52.27
2023-05-04T04:19:36.168Z,52.62
2023-05-04T04:21:06.690Z,52.52
2023-05-04T04:22:35.160Z,52.43
2023-05-04T04:23:57.433Z,52.61
2023-05-04T04:25:19.068Z,52.72
2023-05-04T04:26:42.838Z,52.93
2023-05-04T04:28:08.360Z,52.53
2023-05-04T04:29:35.747Z,52.55
2023-05-04T04:30:57.590Z,52.60
2023-05-04T04:32:30.094Z,52.67
2023-05-04T04:33:52.823Z,52.28
2023-05-04T04:35:41.816Z,52.18
2023-05-04T04:37:06.031Z,52.10
2023-05-04T04:38:30.278Z,52.29
2023-05-04T04:40:11.154Z,52.58
2023-05-04T04:41:41.736Z,52.42
2023-05-04T04:43:20.796Z,52.33
2023-05-04T04:44:45.837Z,52.30
2023-05-04T04:46:08.482Z,52.05
2023-05-04T04:47:34.193Z,52.08
2023-05-04T04:49:18.072Z,51.99
2023-05-04T04:50:48.995Z,51.78
2023-05-04T04:52:15.675Z,51.62
2023-05-04T04:54:09.797Z,51.22
2023-05-04T04:55:34.784Z,51.01
2023-05-04T04:57:17.997Z,51.00
2023-05-04T04:58:40.074Z,50.49
2023-05-04T05:00:38.630Z,50.49
2023-05-04T05:02:04.180Z,50.13
2023-05-04T05:05:31.687Z,49.12
2023-05-04T05:06:58.720Z,48.96
2023-05-04T05:09:14.479Z,48.50
2023-05-04T05:10:45.517Z,48.29
2023-05-04T05:12:21.547Z,47.95
2023-05-04T05:13:45.354Z,47.41
2023-05-04T05:15:08.830Z,47.45
2023-05-04T05:16:38.937Z,46.83
2023-05-04T05:18:01.226Z,46.70
2023-05-04T05:19:25.886Z,46.12
2023-05-04T05:20:51.567Z,45.74
2023-05-04T05:22:39.272Z,45.32
2023-05-04T05:24:52.953Z,44.80
2023-05-04T05:26:26.498Z,44.37
2023-05-04T05:28:29.028Z,43.68
2023-05-04T05:29:51.663Z,43.52
2023-05-04T05:32:06.325Z,43.17
2023-05-04T05:33:35.611Z,42.73
2023-05-04T05:35:27.177Z,42.49
2023-05-04T05:37:13.028Z,42.13
2023-05-04T05:38:39.255Z,41.79
2023-05-04T05:40:11.104Z,41.43
2023-05-04T05:41:51.765Z,41.15
2023-05-04T05:43:59.183Z,40.88
2023-05-04T05:45:41.970Z,40.56
2023-05-04T05:47:08.736Z,40.14
2023-05-04T05:48:51.143Z,39.95
2023-05-04T05:50:19.435Z,39.70
2023-05-04T05:51:42.153Z,39.01
2023-05-04T05:53:15.125Z,38.70
2023-05-04T05:54:45.068Z,38.58
2023-05-04T05:56:20.410Z,37.91
2023-05-04T05:58:31.681Z,37.80
2023-05-04T05:59:56.933Z,37.47
2023-05-04T06:01:32.109Z,37.10
2023-05-04T06:07:03.849Z,36.38
2023-05-04T06:08:31.266Z,36.09
2023-05-04T06:10:22.973Z,35.77
2023-05-04T06:11:46.921Z,35.58
2023-05-04T06:13:12.868Z,35.58
2023-05-04T06:14:40.068Z,35.29
2023-05-04T06:16:14.716Z,35.07
2023-05-04T06:18:08.323Z,34.80
2023-05-04T06:19:33.388Z,34.48
2023-05-04T06:22:02.369Z,34.19
2023-05-04T06:23:28.674Z,34.05
2023-05-04T06:28:18.364Z,33.94
2023-05-04T06:29:53.067Z,33.40
2023-05-04T06:31:51.177Z,33.22
2023-05-04T06:33:51.042Z,33.21
2023-05-04T06:39:14.031Z,32.60
2023-05-04T06:40:43.634Z,32.48
2023-05-04T06:42:06.571Z,32.19
2023-05-04T06:44:09.948Z,31.78
2023-05-04T06:45:42.498Z,31.70
2023-05-04T06:47:15.942Z,31.40
2023-05-04T06:49:05.625Z,30.92
2023-05-04T06:50:28.995Z,30.28
2023-05-04T06:51:53.551Z,29.97
2023-05-04T06:53:40.861Z,29.71
2023-05-04T06:55:21.292Z,29.58
2023-05-04T06:56:51.363Z,29.40
2023-05-04T06:58:24.347Z,29.07
2023-05-04T07:00:53.154Z,28.39
2023-05-04T07:02:19.191Z,28.32
2023-05-04T07:03:58.043Z,28.58
2023-05-04T07:06:39.211Z,28.29
2023-05-04T07:10:24.861Z,27.59
2023-05-04T07:20:43.759Z,25.67
2023-05-04T07:22:20.365Z,25.34
2023-05-04T07:24:02.604Z,25.05
2023-05-04T07:35:03.650Z,23.03
2023-05-04T07:36:32.844Z,22.80
2023-05-04T07:40:08.042Z,22.17
2023-05-04T07:41:34.586Z,21.75
2023-05-04T07:43:03.069Z,21.38
2023-05-04T07:44:50.975Z,20.95
2023-05-04T07:46:16.755Z,20.87
2023-05-04T07:47:46.855Z,20.62
2023-05-04T07:49:10.432Z,19.78
2023-05-04T07:50:35.216Z,19.35
2023-05-04T07:52:00.634Z,19.20
2023-05-04T07:56:41.879Z,18.56
2023-05-04T07:58:11.451Z,18.15
2023-05-04T07:59:34.051Z,17.40
2023-05-04T08:15:16.016Z,8.29
2023-05-04T08:16:47.972Z,7.08
2023-05-04T08:18:34.210Z,6.42
2023-05-04T08:20:03.494Z,5.63
2023-05-04T08:21:26.303Z,4.70
2023-05-04T08:25:07.145Z,3.96
2023-05-04T08:30:05.378Z,2.83
2023-05-04T08:32:32.474Z,2.65
2023-05-04T08:35:38.300Z,2.51
2023-05-04T08:39:52.557Z,1.53
2023-05-04T08:42:11.217Z,1.00
2023-05-04T08:47:00.729Z,1.05
2023-05-04T08:48:26.652Z,0.09
2023-05-04T08:50:05.122Z,0.00
2023-05-04T08:51:37.605Z,0.17
2023-05-04T08:53:12.361Z,0.28
2023-05-04T08:54:49.489Z,0.25
2023-05-04T08:56:22.159Z,0.00
2023-05-04T08:57:58.418Z,0.00
2023-05-04T09:15:10.587Z,0.00
2023-05-04T09:16:53.476Z,0.00
2023-05-04T09:20:37.645Z,0.00
2023-05-04T09:22:04.673Z,0.00
2023-05-04T09:28:28.336Z,0.00
2023-05-04T09:30:14.581Z,0.00
2023-05-04T09:32:08.318Z,0.00
2023-05-04T09:33:54.672Z,0.00
2023-05-04T09:35:49.169Z,0.00
2023-05-04T09:40:41.716Z,0.00
2023-05-04T09:42:39.409Z,0.00
2023-05-04T09:44:12.293Z,0.00
2023-05-04T09:46:07.770Z,0.00
2023-05-04T09:47:48.660Z,0.00
2023-05-04T09:49:19.034Z,0.00
2023-05-04T09:50:55.063Z,0.00
2023-05-04T09:52:41.434Z,0.00
2023-05-04T09:54:35.096Z,0.00
2023-05-04T09:56:25.480Z,0.00
2023-05-04T09:58:23.409Z,0.00
2023-05-04T10:00:10.531Z,0.00
2023-05-04T10:02:18.672Z,0.00
2023-05-04T10:03:54.034Z,0.00
2023-05-04T10:05:25.946Z,0.00
2023-05-04T10:07:00.524Z,0.00
2023-05-04T10:08:35.555Z,0.00
2023-05-04T10:10:05.026Z,0.00
2023-05-04T10:11:35.681Z,0.00
2023-05-04T10:13:06.944Z,0.00
2023-05-04T10:14:36.878Z,0.00
2023-05-04T10:16:19.340Z,0.00
2023-05-04T10:18:00.260Z,0.00
2023-05-04T10:19:43.412Z,0.00
2023-05-04T10:21:29.522Z,0.00
2023-05-04T10:23:35.034Z,0.00
2023-05-04T10:25:28.333Z,0.00
2023-05-04T10:27:08.251Z,0.00
2023-05-04T10:28:45.200Z,0.00
2023-05-04T10:30:09.283Z,0.00
2023-05-04T10:31:43.333Z,0.00
2023-05-04T10:33:09.880Z,0.28
2023-05-04T10:34:33.290Z,0.94
2023-05-04T10:35:58.106Z,1.78
2023-05-04T10:37:22.578Z,2.35
2023-05-04T10:38:43.772Z,3.00
2023-05-04T10:40:09.146Z,3.70
2023-05-04T10:41:31.733Z,4.14
2023-05-04T10:42:54.190Z,4.72
2023-05-04T10:44:29.918Z,5.09
2023-05-04T10:45:53.118Z,6.05
2023-05-04T10:47:17.167Z,7.00
2023-05-04T10:48:44.019Z,7.17
2023-05-04T10:50:16.566Z,7.48
2023-05-04T10:51:49.116Z,7.97
2023-05-04T10:53:12.978Z,8.66
2023-05-04T10:55:08.628Z,8.78
2023-05-04T10:56:33.591Z,9.61
2023-05-04T10:57:58.351Z,9.82
2023-05-04T10:59:24.965Z,10.45
2023-05-04T11:00:54.166Z,10.68
2023-05-04T11:02:24.627Z,11.29
2023-05-04T11:04:08.130Z,12.03
2023-05-04T11:05:42.108Z,12.40
2023-05-04T11:07:08.965Z,12.71
2023-05-04T11:08:33.805Z,13.05
2023-05-04T11:10:08.634Z,13.39
2023-05-04T11:11:33.983Z,13.67
2023-05-04T11:13:05.785Z,13.91
2023-05-04T11:14:38.013Z,14.20
2023-05-04T11:16:00.600Z,14.55
2023-05-04T11:17:28.158Z,15.10
2023-05-04T11:18:52.423Z,15.66
2023-05-04T11:20:25.041Z,15.91
2023-05-04T11:21:52.704Z,15.87
2023-05-04T11:23:18.029Z,16.17
2023-05-04T11:24:44.523Z,16.31
2023-05-04T11:26:09.634Z,16.89
2023-05-04T11:27:32.978Z,17.11
2023-05-04T11:28:59.383Z,17.16
2023-05-04T11:30:35.169Z,17.43
2023-05-04T11:32:01.293Z,17.53
2023-05-04T11:33:26.210Z,17.69
2023-05-04T11:34:59.242Z,17.86
2023-05-04T11:36:27.595Z,18.18
2023-05-04T11:37:52.958Z,18.16
2023-05-04T11:39:16.779Z,18.29
2023-05-04T11:40:44.215Z,18.47
2023-05-04T11:42:16.674Z,18.98
2023-05-04T11:44:05.477Z,18.99
2023-05-04T11:45:37.113Z,19.44
2023-05-04T11:47:05.259Z,19.48
2023-05-04T11:48:32.261Z,19.67
2023-05-04T11:50:07.475Z,19.94
2023-05-04T11:51:30.286Z,19.75
2023-05-04T11:53:09.753Z,19.88
2023-05-04T11:54:32.674Z,20.06
2023-05-04T11:55:56.538Z,20.19
2023-05-04T11:57:42.458Z,20.05
2023-05-04T11:59:23.287Z,20.33
2023-05-04T12:00:47.201Z,20.48
2023-05-04T12:02:27.569Z,20.82
2023-05-04T12:03:53.778Z,20.94
2023-05-04T12:05:19.426Z,21.12
2023-05-04T12:06:41.975Z,21.13
2023-05-04T12:08:36.824Z,21.25
2023-05-04T12:10:05.790Z,21.45
2023-05-04T12:13:30.296Z,21.39
2023-05-04T12:17:43.474Z,21.14
2023-05-04T12:17:43.665Z,21.24
2023-05-04T12:19:14.190Z,21.35
2023-05-04T12:20:38.129Z,21.76
2023-05-04T12:22:02.490Z,21.75
2023-05-04T12:23:24.749Z,21.76
2023-05-04T12:24:47.111Z,21.86
2023-05-04T12:26:19.641Z,21.80
2023-05-04T12:27:44.542Z,21.73
2023-05-04T12:29:07.736Z,21.93
2023-05-04T12:30:30.812Z,21.89
2023-05-04T12:31:53.003Z,22.18
2023-05-04T12:33:15.510Z,22.12
2023-05-04T12:34:40.317Z,22.11
2023-05-04T12:36:08.426Z,22.09
2023-05-04T12:37:34.069Z,22.40
2023-05-04T12:38:57.214Z,22.47
2023-05-04T12:40:28.428Z,22.54
2023-05-04T12:42:00.576Z,22.66
2023-05-04T12:43:25.881Z,22.55
2023-05-04T12:44:50.056Z,22.56
2023-05-04T12:46:15.038Z,22.53
2023-05-04T12:47:37.836Z,22.62
2023-05-04T12:49:03.605Z,22.69
2023-05-04T12:50:46.519Z,22.60
2023-05-04T12:52:11.331Z,22.64
2023-05-04T12:53:33.865Z,22.86
2023-05-04T12:54:58.637Z,22.60
2023-05-04T12:56:23.896Z,22.75
2023-05-04T12:57:46.344Z,22.79
2023-05-04T12:59:11.263Z,22.67
2023-05-04T13:00:46.849Z,22.67
2023-05-04T13:02:11.050Z,22.58
2023-05-04T13:03:39.719Z,22.58
2023-05-04T13:05:02.470Z,22.56
2023-05-04T13:06:25.169Z,22.78
2023-05-04T13:07:50.655Z,22.99
2023-05-04T13:09:13.089Z,22.99
2023-05-04T13:11:45.281Z,23.02
2023-05-04T13:13:07.856Z,23.04
2023-05-04T13:16:01.532Z,23.14
2023-05-04T13:17:24.254Z,23.10
2023-05-04T13:18:46.520Z,23.20
2023-05-04T13:20:16.378Z,23.25
2023-05-04T13:21:42.095Z,23.27
2023-05-04T13:25:21.778Z,23.24
2023-05-04T13:27:04.957Z,23.39
2023-05-04T13:28:28.305Z,23.24
2023-05-04T13:29:53.432Z,23.28
2023-05-04T13:31:22.585Z,23.56
2023-05-04T13:32:45.469Z,23.74
2023-05-04T13:34:11.010Z,23.83
2023-05-04T13:35:39.868Z,23.85
2023-05-04T13:37:05.039Z,23.78
2023-05-04T13:38:39.549Z,23.87
2023-05-04T13:40:02.072Z,23.64
2023-05-04T13:41:24.848Z,23.70
2023-05-04T13:42:49.740Z,23.85
2023-05-04T13:44:17.046Z,23.92
2023-05-04T13:45:39.585Z,24.03
2023-05-04T13:47:04.745Z,24.02
2023-05-04T13:48:29.684Z,23.96
2023-05-04T13:49:52.710Z,23.68
2023-05-04T13:51:20.662Z,23.72
2023-05-04T13:52:54.606Z,23.73
2023-05-04T13:54:18.673Z,23.85
2023-05-04T13:55:53.394Z,23.77
2023-05-04T14:01:26.808Z,23.85
2023-05-04T14:02:52.700Z,23.85
2023-05-04T14:04:26.224Z,23.80
2023-05-04T14:10:18.079Z,23.79
2023-05-04T14:11:45.184Z,23.94
2023-05-04T14:13:10.924Z,23.91
2023-05-04T14:14:33.282Z,23.98
2023-05-04T14:15:58.204Z,23.96
2023-05-04T14:17:23.500Z,24.10
2023-05-04T14:37:01.647Z,23.73
2023-05-04T14:38:36.507Z,23.96
2023-05-04T14:40:04.552Z,24.07
2023-05-04T14:41:28.137Z,24.20
2023-05-04T14:42:53.429Z,24.06
2023-05-04T14:44:16.449Z,23.91
2023-05-04T14:45:46.920Z,24.06
2023-05-04T14:47:16.570Z,24.00
2023-05-04T14:48:46.096Z,24.10
2023-05-04T14:50:14.137Z,23.96
2023-05-04T14:51:37.196Z,24.00
2023-05-04T14:53:13.010Z,24.12
2023-05-04T14:54:43.961Z,24.10
2023-05-04T14:56:11.896Z,24.05
2023-05-04T14:57:37.924Z,24.07
2023-05-04T14:59:01.847Z,24.01
2023-05-04T15:00:24.546Z,23.92
2023-05-04T15:01:48.711Z,24.20
2023-05-04T15:03:11.982Z,24.06
2023-05-04T15:04:34.595Z,24.15
2023-05-04T15:05:59.223Z,24.11
2023-05-04T15:07:21.954Z,24.20
2023-05-04T15:08:46.728Z,24.13
2023-05-04T15:10:12.883Z,24.25
2023-05-04T15:11:38.993Z,24.28
2023-05-04T15:13:20.218Z,24.12
2023-05-04T15:15:13.293Z,24.29
2023-05-04T15:17:12.080Z,24.10
2023-05-04T15:18:52.506Z,24.27
2023-05-04T15:20:15.882Z,24.25
2023-05-04T15:21:39.239Z,24.27
2023-05-04T15:23:10.419Z,24.47
2023-05-04T15:24:32.946Z,24.22
2023-05-04T15:26:07.518Z,24.12
2023-05-04T15:27:36.530Z,24.32
2023-05-04T15:29:16.295Z,24.31
2023-05-04T15:30:40.016Z,24.31
2023-05-04T15:32:08.616Z,24.02
2023-05-04T15:33:34.807Z,24.30
2023-05-04T15:35:06.320Z,24.44
2023-05-04T15:36:46.921Z,24.33
2023-05-04T15:38:20.399Z,24.30
2023-05-04T15:39:44.895Z,24.33
2023-05-04T15:41:15.722Z,24.21
2023-05-04T15:42:51.039Z,23.98
2023-05-04T15:44:26.674Z,24.02
2023-05-04T15:45:53.925Z,23.97
2023-05-04T15:47:22.743Z,24.06
2023-05-04T15:48:51.715Z,23.81
2023-05-04T15:50:25.680Z,23.79
2023-05-04T15:51:50.573Z,23.74
2023-05-04T15:53:23.934Z,23.85
2023-05-04T15:54:52.131Z,23.94
2023-05-04T15:56:25.901Z,23.87
2023-05-04T15:57:56.822Z,24.04
2023-05-04T15:59:22.740Z,24.04
2023-05-04T16:00:58.743Z,24.02
2023-05-04T16:02:43.063Z,23.92
2023-05-04T16:04:18.819Z,24.14
2023-05-04T16:06:12.109Z,24.12
2023-05-04T16:07:54.760Z,24.08
2023-05-04T16:09:20.965Z,24.27
2023-05-04T16:10:59.628Z,24.12
2023-05-04T16:12:47.859Z,24.15
2023-05-04T16:14:29.150Z,24.46
2023-05-04T16:16:02.424Z,24.41
2023-05-04T16:17:26.886Z,24.31
2023-05-04T16:18:53.770Z,24.30
2023-05-04T16:20:17.740Z,24.18
2023-05-04T16:21:43.154Z,24.23
2023-05-04T16:23:16.022Z,24.20
2023-05-04T16:24:38.924Z,24.28
2023-05-04T16:26:01.359Z,24.06
2023-05-04T16:27:30.112Z,24.36
2023-05-04T16:28:55.326Z,24.32
2023-05-04T16:30:20.885Z,24.24
2023-05-04T16:31:49.217Z,24.25
2023-05-04T16:33:54.678Z,24.46
2023-05-04T16:35:17.184Z,24.05
2023-05-04T16:36:43.910Z,24.44
2023-05-04T16:38:15.902Z,24.28
2023-05-04T16:39:43.593Z,24.19
2023-05-04T16:41:16.957Z,24.34
2023-05-04T16:43:09.449Z,24.57
2023-05-04T16:44:40.056Z,24.62
2023-05-04T16:48:19.158Z,24.50
2023-05-04T16:49:49.447Z,24.64
2023-05-04T16:51:13.614Z,24.54
2023-05-04T16:52:36.554Z,24.39
2023-05-04T16:54:29.278Z,24.44
2023-05-04T16:55:54.604Z,24.66
2023-05-04T16:57:22.752Z,24.74
2023-05-04T16:58:53.036Z,24.89
2023-05-04T17:00:21.338Z,24.81
2023-05-04T17:01:56.936Z,24.76
2023-05-04T17:03:20.679Z,24.99
2023-05-04T17:04:43.685Z,24.87
2023-05-04T17:06:11.141Z,24.92
2023-05-04T17:07:35.102Z,24.88
2023-05-04T17:09:11.638Z,25.05
2023-05-04T17:10:38.702Z,25.11
2023-05-04T17:15:05.283Z,25.40
2023-05-04T17:16:35.538Z,25.31
2023-05-04T17:18:07.762Z,25.30
2023-05-04T17:20:16.243Z,25.15
2023-05-04T17:22:19.586Z,25.44
2023-05-04T17:24:29.656Z,25.59
2023-05-04T17:36:45.198Z,25.80
2023-05-04T17:38:12.487Z,25.93
2023-05-04T17:39:53.657Z,26.08
2023-05-04T17:41:28.174Z,26.33
2023-05-04T17:42:54.148Z,26.43
2023-05-04T17:44:16.087Z,26.63
2023-05-04T17:45:40.971Z,26.87
2023-05-04T17:47:08.012Z,26.76
2023-05-04T17:48:38.673Z,26.98
2023-05-04T17:50:00.170Z,27.06
2023-05-04T17:51:46.603Z,27.15
2023-05-04T17:53:12.077Z,27.36
2023-05-04T17:54:35.425Z,27.28
2023-05-04T17:55:58.308Z,27.22
2023-05-04T17:57:33.674Z,27.36
2023-05-04T17:59:01.368Z,27.34
2023-05-04T18:00:37.851Z,27.25
2023-05-04T18:02:16.997Z,27.31
2023-05-04T18:03:48.328Z,27.35
2023-05-04T18:05:16.912Z,27.44
2023-05-04T18:06:41.425Z,27.70
2023-05-04T18:08:04.262Z,27.49
2023-05-04T18:09:42.818Z,27.86
2023-05-04T18:11:05.413Z,27.74
2023-05-04T18:12:33.333Z,27.66
2023-05-04T18:14:00.935Z,27.63
2023-05-04T18:18:13.940Z,27.67
2023-05-04T18:19:40.879Z,27.81
2023-05-04T18:21:08.266Z,27.74
2023-05-04T18:22:37.459Z,27.93
2023-05-04T18:26:22.941Z,28.16
2023-05-04T18:27:45.817Z,28.17
2023-05-04T18:29:19.878Z,28.16
2023-05-04T18:30:47.822Z,28.34
2023-05-04T18:32:11.169Z,28.42
2023-05-04T18:33:34.930Z,28.40
2023-05-04T18:34:59.764Z,28.57
2023-05-04T18:36:26.749Z,28.43
2023-05-04T18:38:14.530Z,28.71
2023-05-04T18:39:41.065Z,28.71
2023-05-04T18:41:40.407Z,28.96
2023-05-04T18:43:36.142Z,28.78
2023-05-04T18:45:49.970Z,28.85
2023-05-04T18:47:22.010Z,28.96
2023-05-04T18:48:51.653Z,28.99
2023-05-04T18:50:19.710Z,29.07
2023-05-04T18:51:50.116Z,29.24
2023-05-04T18:53:24.745Z,29.14
2023-05-04T18:54:55.546Z,29.24
2023-05-04T18:56:18.616Z,29.24
2023-05-04T18:57:41.925Z,29.27
2023-05-04T18:59:35.290Z,29.35
2023-05-04T19:00:58.153Z,29.31
2023-05-04T19:02:23.403Z,29.23
2023-05-04T19:03:50.365Z,29.39
2023-05-04T19:05:14.643Z,29.48
2023-05-04T19:06:44.514Z,29.53
2023-05-04T19:08:12.073Z,29.51
2023-05-04T19:09:36.581Z,29.40
2023-05-04T19:11:51.785Z,29.48
2023-05-04T19:13:19.551Z,29.63
2023-05-04T19:14:47.240Z,29.35
2023-05-04T19:16:25.770Z,29.73
2023-05-04T19:17:51.530Z,29.49
2023-05-04T19:19:27.708Z,29.51
2023-05-04T19:20:58.212Z,29.56
2023-05-04T19:22:21.443Z,29.78
2023-05-04T19:23:56.964Z,29.74
2023-05-04T19:25:35.034Z,29.58
2023-05-04T19:27:12.691Z,29.77
2023-05-04T19:28:50.980Z,29.71
2023-05-04T19:30:20.967Z,29.72
2023-05-04T19:31:45.880Z,29.73
2023-05-04T19:33:15.233Z,29.70
2023-05-04T19:34:46.605Z,29.92
2023-05-04T19:36:32.668Z,29.90
2023-05-04T19:38:18.152Z,29.85
2023-05-04T19:39:55.409Z,29.84
2023-05-04T19:41:20.324Z,29.79
2023-05-04T19:42:51.526Z,29.82
2023-05-04T19:44:17.282Z,29.73
2023-05-04T19:46:06.162Z,29.68
2023-05-04T19:47:52.998Z,29.97
2023-05-04T19:49:30.625Z,30.00
2023-05-04T19:51:33.598Z,29.84
2023-05-04T19:52:59.913Z,29.91
2023-05-04T19:54:26.014Z,29.62
2023-05-04T19:56:00.824Z,29.95
2023-05-04T19:57:31.869Z,30.12
2023-05-04T19:59:15.459Z,30.37
2023-05-04T20:00:57.512Z,30.04
2023-05-04T20:02:24.782Z,30.24
2023-05-04T20:04:13.685Z,30.14
2023-05-04T20:05:40.662Z,30.02
2023-05-04T20:07:18.024Z,30.24
2023-05-04T20:08:51.369Z,30.41
2023-05-04T20:10:17.755Z,30.35
2023-05-04T20:11:43.456Z,30.26
2023-05-04T20:13:47.261Z,30.36
2023-05-04T20:15:16.282Z,30.61
2023-05-04T20:16:49.786Z,30.53
2023-05-04T20:18:37.691Z,30.75
2023-05-04T20:20:07.195Z,30.53
2023-05-04T20:21:32.690Z,30.51
2023-05-04T20:23:11.530Z,30.76
2023-05-04T20:24:43.045Z,30.58
2023-05-04T20:26:08.037Z,30.75
2023-05-04T20:27:33.346Z,30.60
2023-05-04T20:28:56.577Z,30.70
2023-05-04T20:30:29.065Z,30.82
2023-05-04T20:31:54.337Z,30.80
2023-05-04T20:35:13.448Z,30.89
2023-05-04T20:36:43.407Z,30.71
2023-05-04T20:38:11.246Z,30.94
2023-05-04T20:39:43.972Z,30.80
2023-05-04T20:41:14.149Z,31.02
2023-05-04T20:42:52.804Z,30.86
2023-05-04T20:44:17.355Z,30.64
2023-05-04T20:45:43.930Z,30.65
2023-05-04T20:47:07.172Z,30.87
2023-05-04T20:48:39.538Z,31.05
2023-05-04T20:50:03.883Z,31.17
2023-05-04T20:51:28.175Z,31.17
2023-05-04T20:52:50.995Z,31.15
2023-05-04T20:54:13.403Z,31.31
2023-05-04T20:55:43.699Z,31.22
2023-05-04T20:57:06.560Z,31.33
2023-05-04T20:58:29.252Z,31.49
2023-05-04T20:59:54.474Z,31.45
2023-05-04T21:01:17.332Z,31.39
2023-05-04T21:02:40.143Z,31.42
2023-05-04T21:04:08.611Z,31.33
2023-05-04T21:05:30.942Z,31.35
2023-05-04T21:06:54.930Z,31.44
2023-05-04T21:08:17.720Z,31.69
2023-05-04T21:10:13.885Z,31.64
2023-05-04T21:11:44.994Z,31.69
2023-05-04T21:13:21.772Z,31.81
2023-05-04T21:15:13.103Z,31.62
2023-05-04T21:16:36.009Z,31.75
2023-05-04T21:17:58.470Z,32.09
2023-05-04T21:19:29.472Z,31.88
2023-05-04T21:20:51.810Z,31.90
2023-05-04T21:22:22.273Z,32.10
2023-05-04T21:23:49.383Z,32.06
2023-05-04T21:25:14.754Z,32.17
2023-05-04T21:26:42.753Z,32.50
2023-05-04T21:28:18.854Z,32.27
2023-05-04T21:29:42.893Z,32.35
2023-05-04T21:31:11.426Z,32.29
2023-05-04T21:32:36.671Z,32.27
2023-05-04T21:34:05.272Z,32.50
2023-05-04T21:35:41.158Z,32.40
2023-05-04T21:37:19.903Z,32.58
2023-05-04T21:38:44.660Z,32.78
2023-05-04T21:41:57.907Z,33.01
2023-05-04T21:43:23.846Z,33.06
2023-05-04T21:44:52.618Z,33.34
2023-05-04T21:46:15.799Z,33.38
2023-05-04T21:47:54.590Z,33.58
2023-05-04T21:49:42.048Z,33.68
2023-05-04T21:51:04.800Z,33.65
2023-05-04T21:52:37.196Z,33.65
2023-05-04T21:54:10.200Z,33.49
2023-05-04T21:55:35.183Z,33.61
2023-05-04T21:57:03.315Z,33.69
2023-05-04T21:58:29.275Z,33.86
2023-05-04T21:59:51.822Z,34.04
2023-05-04T22:01:21.647Z,34.08
2023-05-04T22:03:14.352Z,34.11
2023-05-04T22:04:36.853Z,34.06
2023-05-04T22:06:21.811Z,34.19
2023-05-04T22:08:04.925Z,34.23
2023-05-04T22:09:32.716Z,34.54
2023-05-04T22:11:46.899Z,34.52
2023-05-04T22:13:21.445Z,34.66
2023-05-04T22:15:08.188Z,34.88
2023-05-04T22:16:29.668Z,34.85
2023-05-04T22:17:52.079Z,35.26
2023-05-04T22:19:14.426Z,35.17
2023-05-04T22:20:35.846Z,35.53
2023-05-04T22:21:58.372Z,35.66
2023-05-04T22:23:19.642Z,36.21
2023-05-04T22:24:43.649Z,36.22
2023-05-04T22:26:09.199Z,36.21
2023-05-04T22:29:38.669Z,36.42
2023-05-04T22:31:04.062Z,36.65
2023-05-04T22:32:25.655Z,36.85
2023-05-04T22:33:49.984Z,36.96
2023-05-04T22:35:13.017Z,36.96
2023-05-04T22:36:39.666Z,37.22
2023-05-04T22:38:00.955Z,37.25
2023-05-04T22:39:23.224Z,37.48
2023-05-04T22:42:25.151Z,37.45
2023-05-04T22:43:48.158Z,37.63
2023-05-04T22:45:15.225Z,37.57
2023-05-04T22:46:37.706Z,37.83
2023-05-04T22:48:01.557Z,37.88
2023-05-04T22:49:23.116Z,38.04
2023-05-04T22:50:51.415Z,38.23